createdAt,value
2022-10-18T00:00:49.990Z,15.38
2022-10-18T00:03:52.555Z,14.25
2022-10-18T00:06:54.767Z,15.10
2022-10-18T00:09:57.308Z,14.80
2022-10-18T00:12:59.547Z,15.65
2022-10-18T00:16:04.727Z,14.55
2022-10-18T00:19:07.007Z,14.50
2022-10-18T00:22:09.449Z,14.60
2022-10-18T00:25:11.682Z,14.10
2022-10-18T00:28:14.180Z,14.20
2022-10-18T00:31:23.219Z,14.87
2022-10-18T00:34:25.824Z,14.55
2022-10-18T01:24:32.159Z,14.65
2022-10-18T01:31:18.983Z,14.02
2022-10-18T01:34:24.284Z,14.00
2022-10-18T01:37:29.584Z,13.90
2022-10-18T01:40:35.463Z,14.32
2022-10-18T01:43:39.825Z,14.35
2022-10-18T01:46:44.155Z,14.10
2022-10-18T01:52:51.185Z,13.52
2022-10-18T01:56:04.726Z,13.88
2022-10-18T01:59:36.135Z,14.27
2022-10-18T02:02:49.231Z,13.73
2022-10-18T02:05:58.727Z,13.13
2022-10-18T02:09:11.162Z,13.93
2022-10-18T02:12:15.647Z,12.95
2022-10-18T02:15:23.148Z,13.02
2022-10-18T02:18:36.045Z,12.98
2022-10-18T02:21:40.932Z,12.93
2022-10-18T02:24:49.332Z,12.77
2022-10-18T02:27:52.496Z,12.43
2022-10-18T02:31:06.476Z,12.32
2022-10-18T02:34:29.616Z,12.23
2022-10-18T02:37:38.708Z,12.40
2022-10-18T02:40:41.217Z,11.90
2022-10-18T02:43:43.695Z,11.95
2022-10-18T02:46:46.785Z,13.25
2022-10-18T02:49:49.260Z,13.20
2022-10-18T02:52:51.528Z,13.45
2022-10-18T02:55:54.030Z,12.25
2022-10-18T02:58:56.420Z,12.55
2022-10-18T03:01:58.890Z,12.43
2022-10-18T03:05:01.132Z,12.05
2022-10-18T03:08:03.842Z,12.45
2022-10-18T03:11:06.627Z,12.50
2022-10-18T03:14:09.122Z,12.37
2022-10-18T03:17:11.463Z,12.43
2022-10-18T03:20:14.023Z,11.70
2022-10-18T03:23:16.254Z,11.70
2022-10-18T03:26:18.739Z,11.60
2022-10-18T03:29:21.012Z,12.02
2022-10-18T03:32:23.492Z,15.38
2022-10-18T03:35:25.893Z,11.95
2022-10-18T03:38:28.402Z,11.70
2022-10-18T03:41:30.856Z,11.70
2022-10-18T03:44:33.402Z,11.48
2022-10-18T03:47:35.628Z,11.32
2022-10-18T03:50:38.421Z,11.73
2022-10-18T03:53:40.653Z,12.18
2022-10-18T03:56:45.486Z,11.52
2022-10-18T03:59:48.785Z,12.00
2022-10-18T04:02:53.494Z,11.25
2022-10-18T04:06:00.583Z,12.00
2022-10-18T04:09:04.272Z,12.18
2022-10-18T04:12:09.158Z,11.07
2022-10-18T04:15:11.395Z,11.95
2022-10-18T04:18:13.900Z,12.77
2022-10-18T04:21:16.312Z,13.98
2022-10-18T04:24:19.040Z,11.73
2022-10-18T04:27:21.312Z,12.35
2022-10-18T04:30:23.853Z,11.15
2022-10-18T04:33:26.064Z,13.05
2022-10-18T04:36:28.562Z,12.02
2022-10-18T04:39:30.851Z,12.13
2022-10-18T04:42:33.837Z,12.77
2022-10-18T04:45:36.109Z,12.27
2022-10-18T04:48:38.897Z,12.90
2022-10-18T04:51:41.070Z,12.80
2022-10-18T04:54:43.602Z,13.35
2022-10-18T04:57:45.907Z,13.00
2022-10-18T05:00:48.642Z,13.35
2022-10-18T05:03:55.154Z,13.20
2022-10-18T05:06:57.640Z,13.95
2022-10-18T05:09:59.910Z,12.57
2022-10-18T05:13:03.371Z,12.57
2022-10-18T05:16:06.362Z,12.80
2022-10-18T05:19:09.901Z,13.70
2022-10-18T05:22:12.104Z,13.48
2022-10-18T05:25:14.813Z,13.05
2022-10-18T05:28:41.741Z,12.40
2022-10-18T05:31:39.686Z,13.95
2022-10-18T05:34:41.891Z,12.95
2022-10-18T05:37:44.367Z,12.55
2022-10-18T05:40:46.709Z,12.55
2022-10-18T05:43:49.251Z,13.07
2022-10-18T05:46:51.906Z,13.80
2022-10-18T05:49:54.385Z,13.32
2022-10-18T05:53:02.741Z,13.93
2022-10-18T05:56:15.227Z,13.60
2022-10-18T05:59:17.518Z,14.87
2022-10-18T06:02:20.131Z,13.62
2022-10-18T06:05:25.673Z,13.90
2022-10-18T06:08:27.954Z,15.65
2022-10-18T06:11:31.344Z,13.77
2022-10-18T06:14:33.719Z,15.40
2022-10-18T06:17:36.380Z,14.60
2022-10-18T06:20:38.927Z,14.73
2022-10-18T06:23:47.447Z,14.30
2022-10-18T06:26:50.071Z,14.60
2022-10-18T06:29:52.813Z,14.20
2022-10-18T06:33:01.428Z,14.60
2022-10-18T06:36:10.310Z,15.95
2022-10-18T06:39:12.585Z,16.23
2022-10-18T06:42:16.952Z,15.02
2022-10-18T06:45:21.409Z,15.35
2022-10-18T06:48:24.583Z,14.80
2022-10-18T06:51:28.830Z,15.85
2022-10-18T06:54:31.547Z,15.45
2022-10-18T06:57:33.789Z,15.52
2022-10-18T07:00:36.432Z,13.73
2022-10-18T07:03:38.819Z,14.73
2022-10-18T07:06:41.489Z,13.65
2022-10-18T07:09:46.046Z,14.60
2022-10-18T07:12:48.660Z,14.68
2022-10-18T07:16:00.839Z,13.55
2022-10-18T07:19:03.817Z,13.85
2022-10-18T07:22:06.056Z,14.70
2022-10-18T07:25:09.362Z,14.30
2022-10-18T07:28:11.644Z,12.93
2022-10-18T07:31:14.659Z,13.70
2022-10-18T07:34:16.954Z,13.23
2022-10-18T07:37:19.434Z,13.73
2022-10-18T07:40:21.879Z,13.70
2022-10-18T07:43:24.904Z,14.43
2022-10-18T07:46:27.592Z,13.50
2022-10-18T07:49:30.103Z,13.68
2022-10-18T07:52:32.341Z,13.52
2022-10-18T07:55:35.000Z,13.55
2022-10-18T07:58:37.485Z,13.15
2022-10-18T08:01:40.110Z,12.40
2022-10-18T08:04:42.708Z,13.57
2022-10-18T08:07:44.956Z,12.70
2022-10-18T08:10:47.621Z,13.70
2022-10-18T08:13:50.699Z,18.95
2022-10-18T08:20:11.841Z,12.52
2022-10-18T08:23:15.008Z,13.68
2022-10-18T08:26:20.285Z,12.27
2022-10-18T08:29:25.847Z,12.40
2022-10-18T08:32:30.592Z,12.80
2022-10-18T08:35:33.489Z,12.35
2022-10-18T08:38:37.440Z,13.38
2022-10-18T08:41:51.834Z,12.65
2022-10-18T08:44:54.829Z,11.40
2022-10-18T08:47:58.051Z,10.65
2022-10-18T08:51:01.593Z,9.60
2022-10-18T08:54:10.902Z,9.02
2022-10-18T08:57:15.948Z,8.13
2022-10-18T09:00:28.342Z,8.23
2022-10-18T09:03:52.582Z,8.87
2022-10-18T09:07:18.396Z,8.13
2022-10-18T09:10:41.827Z,7.85
2022-10-18T09:13:58.454Z,7.03
2022-10-18T09:17:16.323Z,6.78
2022-10-18T09:20:49.908Z,7.28
2022-10-18T09:24:13.370Z,8.35
2022-10-18T09:27:18.555Z,7.93
2022-10-18T09:30:42.459Z,10.77
2022-10-18T09:34:03.010Z,7.93
2022-10-18T09:37:19.711Z,8.02
2022-10-18T09:40:30.653Z,7.28
2022-10-18T09:43:59.710Z,7.30
2022-10-18T09:47:14.626Z,7.12
2022-10-18T09:50:42.502Z,7.25
2022-10-18T09:53:55.753Z,6.50
2022-10-18T09:57:05.883Z,6.20
2022-10-18T10:00:23.138Z,6.18
2022-10-18T10:03:26.025Z,6.25
2022-10-18T10:06:35.817Z,5.80
2022-10-18T10:09:47.558Z,6.07
2022-10-18T10:13:22.278Z,6.37
2022-10-18T10:16:27.110Z,5.85
2022-10-18T10:20:16.865Z,4.82
2022-10-18T10:23:41.228Z,5.07
2022-10-18T10:26:47.193Z,5.50
2022-10-18T10:29:56.480Z,6.07
2022-10-18T10:32:59.782Z,5.60
2022-10-18T10:36:06.086Z,5.93
2022-10-18T10:39:16.334Z,5.65
2022-10-18T10:42:18.973Z,5.75
2022-10-18T10:45:25.386Z,4.80
2022-10-18T10:48:33.783Z,4.68
2022-10-18T10:51:38.674Z,4.97
2022-10-18T10:54:50.425Z,4.80
2022-10-18T10:57:56.408Z,4.95
2022-10-18T11:01:26.768Z,5.45
2022-10-18T11:04:32.413Z,5.28
2022-10-18T11:07:41.082Z,5.03
2022-10-18T11:10:56.405Z,5.40
2022-10-18T11:14:25.758Z,5.10
2022-10-18T11:17:39.594Z,5.22
2022-10-18T11:20:46.757Z,5.82
2022-10-18T11:23:51.430Z,5.12
2022-10-18T11:27:04.997Z,5.43
2022-10-18T11:30:25.727Z,5.15
2022-10-18T11:34:08.592Z,4.75
2022-10-18T11:37:56.638Z,4.70
2022-10-18T11:41:09.441Z,4.65
2022-10-18T11:44:29.200Z,4.57
2022-10-18T11:47:44.794Z,5.60
2022-10-18T11:51:05.689Z,4.60
2022-10-18T11:54:29.864Z,4.72
2022-10-18T12:00:49.299Z,4.75
2022-10-18T12:04:02.260Z,4.50
2022-10-18T12:07:07.522Z,4.30
2022-10-18T12:10:26.170Z,4.70
2022-10-18T12:14:30.729Z,4.85
2022-10-18T12:17:43.924Z,4.72
2022-10-18T12:20:54.662Z,5.03
2022-10-18T12:24:18.801Z,4.93
2022-10-18T12:27:34.203Z,4.97
2022-10-18T12:30:57.698Z,4.72
2022-10-18T12:34:10.737Z,4.55
2022-10-18T12:37:44.501Z,5.15
2022-10-18T12:40:52.053Z,4.28
2022-10-18T12:44:19.819Z,4.50
2022-10-18T12:47:24.584Z,4.32
2022-10-18T12:50:39.691Z,4.28
2022-10-18T12:53:45.945Z,4.70
2022-10-18T12:56:48.608Z,4.18
2022-10-18T12:59:51.147Z,4.70
2022-10-18T13:03:13.540Z,4.85
2022-10-18T13:06:16.012Z,4.37
2022-10-18T13:09:21.565Z,4.40
2022-10-18T13:12:23.955Z,4.18
2022-10-18T13:16:02.169Z,4.07
2022-10-18T13:19:23.718Z,3.60
2022-10-18T13:22:35.387Z,4.15
2022-10-18T13:26:22.935Z,4.32
2022-10-18T13:29:54.730Z,3.65
2022-10-18T13:33:42.246Z,3.80
2022-10-18T13:36:44.777Z,3.90
2022-10-18T13:39:47.952Z,3.55
2022-10-18T13:42:50.726Z,3.58
2022-10-18T13:45:56.235Z,4.00
2022-10-18T13:49:17.287Z,3.35
2022-10-18T13:52:47.534Z,3.70
2022-10-18T13:59:25.164Z,3.72
2022-10-18T14:02:50.982Z,3.78
2022-10-18T14:06:20.114Z,3.72
2022-10-18T14:09:40.305Z,3.90
2022-10-18T14:12:54.793Z,4.22
2022-10-18T14:16:05.961Z,4.37
2022-10-18T14:19:20.347Z,4.32
2022-10-18T14:22:38.817Z,3.90
2022-10-18T14:25:42.153Z,4.15
2022-10-18T14:29:01.723Z,3.77
2022-10-18T14:32:10.705Z,4.10
2022-10-18T14:35:32.425Z,3.80
2022-10-18T14:38:37.537Z,4.30
2022-10-18T14:41:52.837Z,5.35
2022-10-18T14:44:56.566Z,3.33
2022-10-18T14:48:07.749Z,3.60
2022-10-18T14:51:11.357Z,4.10
2022-10-18T14:54:19.734Z,4.85
2022-10-18T14:57:26.861Z,3.70
2022-10-18T15:00:38.118Z,3.90
2022-10-18T15:03:40.684Z,4.15
2022-10-18T15:06:44.503Z,4.30
2022-10-18T15:09:47.422Z,4.28
2022-10-18T15:13:08.679Z,4.40
2022-10-18T15:16:17.171Z,4.50
2022-10-18T15:19:22.281Z,4.37
2022-10-18T15:22:31.911Z,4.20
2022-10-18T15:25:35.930Z,4.70
2022-10-18T15:28:52.644Z,4.80
2022-10-18T15:31:55.465Z,4.50
2022-10-18T15:35:20.980Z,4.70
2022-10-18T15:38:29.063Z,4.12
2022-10-18T15:41:51.994Z,4.90
2022-10-18T15:44:54.270Z,4.70
2022-10-18T15:48:13.081Z,5.03
2022-10-18T15:51:48.169Z,5.20
2022-10-18T15:54:50.915Z,5.12
2022-10-18T15:58:04.773Z,5.03
2022-10-18T16:01:16.271Z,5.32
2022-10-18T16:04:32.760Z,5.45
2022-10-18T16:07:35.338Z,5.78
2022-10-18T16:10:38.252Z,5.85
2022-10-18T16:13:40.888Z,5.47
2022-10-18T16:16:44.284Z,5.60
2022-10-18T16:19:46.495Z,5.18
2022-10-18T16:22:49.076Z,5.32
2022-10-18T16:25:51.883Z,5.50
2022-10-18T16:28:55.661Z,5.57
2022-10-18T16:31:58.527Z,5.85
2022-10-18T16:35:01.091Z,5.55
2022-10-18T16:38:03.343Z,5.57
2022-10-18T16:41:07.592Z,5.68
2022-10-18T16:44:10.785Z,6.10
2022-10-18T16:47:13.304Z,5.68
2022-10-18T16:50:18.989Z,7.07
2022-10-18T16:53:25.287Z,6.43
2022-10-18T16:56:31.134Z,8.57
2022-10-18T16:59:33.648Z,8.20
2022-10-18T17:02:35.917Z,7.60
2022-10-18T17:05:38.635Z,7.43
2022-10-18T17:08:40.919Z,7.32
2022-10-18T17:11:43.448Z,6.95
2022-10-18T17:14:45.656Z,7.35
2022-10-18T17:17:49.988Z,7.15
2022-10-18T17:20:52.546Z,7.30
2022-10-18T17:23:55.880Z,7.57
2022-10-18T17:26:58.188Z,7.03
2022-10-18T17:30:00.834Z,7.00
2022-10-18T17:33:03.061Z,6.97
2022-10-18T17:36:05.786Z,7.50
2022-10-18T17:39:08.915Z,7.60
2022-10-18T17:42:11.516Z,9.60
2022-10-18T17:45:13.734Z,7.82
2022-10-18T17:48:16.667Z,8.15
2022-10-18T17:51:18.949Z,8.15
2022-10-18T17:54:21.476Z,8.50
2022-10-18T17:57:23.727Z,8.90
2022-10-18T18:00:26.952Z,8.82
2022-10-18T18:03:29.528Z,8.65
2022-10-18T18:06:34.488Z,8.73
2022-10-18T18:09:37.213Z,8.75
2022-10-18T18:12:39.504Z,8.88
2022-10-18T18:15:42.156Z,8.23
2022-10-18T18:18:45.361Z,8.07
2022-10-18T18:21:48.083Z,7.70
2022-10-18T18:24:50.330Z,8.27
2022-10-18T18:27:54.295Z,9.48
2022-10-18T18:30:56.903Z,8.13
2022-10-18T18:34:00.398Z,8.38
2022-10-18T18:37:02.793Z,8.65
2022-10-18T18:40:05.911Z,9.15
2022-10-18T18:43:22.635Z,8.63
2022-10-18T18:46:28.389Z,9.05
2022-10-18T18:49:31.491Z,7.97
2022-10-18T18:52:34.694Z,7.35
2022-10-18T18:55:39.732Z,8.40
2022-10-18T18:58:44.358Z,10.35
2022-10-18T19:01:46.684Z,10.73
2022-10-18T19:04:50.700Z,8.88
2022-10-18T19:07:53.008Z,9.80
2022-10-18T19:10:55.500Z,11.48
2022-10-18T19:13:57.874Z,10.85
2022-10-18T19:17:01.545Z,8.85
2022-10-18T19:20:05.139Z,8.40
2022-10-18T19:26:22.895Z,8.93
2022-10-18T19:29:31.590Z,9.25
2022-10-18T19:32:34.226Z,8.85
2022-10-18T19:35:38.295Z,12.00
2022-10-18T19:38:40.568Z,10.68
2022-10-18T19:41:43.175Z,10.00
2022-10-18T19:44:45.454Z,9.63
2022-10-18T19:47:48.058Z,9.30
2022-10-18T19:50:50.823Z,9.18
2022-10-18T19:53:54.438Z,9.17
2022-10-18T19:56:56.761Z,9.48
2022-10-18T20:00:00.738Z,9.82
2022-10-18T20:06:06.487Z,10.13
2022-10-18T20:09:13.367Z,10.70
2022-10-18T20:12:18.710Z,10.48
2022-10-18T20:15:20.952Z,10.65
2022-10-18T20:18:23.819Z,10.82
2022-10-18T20:21:28.364Z,10.57
2022-10-18T20:24:30.962Z,10.23
2022-10-18T20:27:33.733Z,10.85
2022-10-18T20:30:36.455Z,11.45
2022-10-18T20:33:39.254Z,10.38
2022-10-18T20:36:42.912Z,11.73
2022-10-18T20:39:45.621Z,12.07
2022-10-18T20:42:48.145Z,11.53
2022-10-18T20:45:56.723Z,10.75
2022-10-18T20:48:59.274Z,11.25
2022-10-18T20:52:01.476Z,11.70
2022-10-18T20:55:04.615Z,11.23
2022-10-18T20:58:06.891Z,11.00
2022-10-18T21:01:10.447Z,10.07
2022-10-18T21:04:12.759Z,10.95
2022-10-18T21:07:15.211Z,11.43
2022-10-18T21:10:17.427Z,11.73
2022-10-18T21:13:19.938Z,10.77
2022-10-18T21:16:22.292Z,10.82
2022-10-18T21:19:26.635Z,11.43
2022-10-18T21:22:28.865Z,10.98
2022-10-18T21:25:31.479Z,12.07
2022-10-18T21:28:34.436Z,12.25
2022-10-18T21:31:39.801Z,12.70
2022-10-18T21:34:42.019Z,11.27
2022-10-18T21:37:44.506Z,12.15
2022-10-18T21:40:46.771Z,11.30
2022-10-18T21:43:51.920Z,12.60
2022-10-18T21:46:55.062Z,11.60
2022-10-18T21:49:57.865Z,12.85
2022-10-18T21:53:00.117Z,12.82
2022-10-18T21:56:15.480Z,13.52
2022-10-18T21:59:17.723Z,12.63
2022-10-18T22:02:20.194Z,13.38
2022-10-18T22:05:22.727Z,12.80
2022-10-18T22:08:24.998Z,12.85
2022-10-18T22:11:34.616Z,13.18
2022-10-18T22:14:36.825Z,13.60
2022-10-18T22:17:39.316Z,12.95
2022-10-18T22:20:41.549Z,12.77
2022-10-18T22:23:49.465Z,12.60
2022-10-18T22:26:51.679Z,13.55
2022-10-18T22:29:54.176Z,14.00
2022-10-18T22:32:56.777Z,13.15
2022-10-18T22:35:59.518Z,13.50
2022-10-18T22:39:05.459Z,14.73
2022-10-18T22:42:08.089Z,15.77
2022-10-18T22:45:10.570Z,13.90
2022-10-18T22:48:13.036Z,13.88
2022-10-18T22:51:15.891Z,14.45
2022-10-18T22:54:18.497Z,13.83
2022-10-18T22:57:20.729Z,13.62
2022-10-18T23:00:23.307Z,13.52
2022-10-18T23:03:25.539Z,13.52
2022-10-18T23:06:30.974Z,14.30
2022-10-18T23:09:33.401Z,13.48
2022-10-18T23:12:36.107Z,13.70
2022-10-18T23:15:41.372Z,13.68
2022-10-18T23:18:44.067Z,13.93
2022-10-18T23:21:46.455Z,14.25
2022-10-18T23:24:48.933Z,14.30
2022-10-18T23:27:51.151Z,13.75
2022-10-18T23:30:53.632Z,13.52
2022-10-18T23:33:58.183Z,14.23
2022-10-18T23:37:00.691Z,13.10
2022-10-18T23:40:04.431Z,13.75
2022-10-18T23:43:06.945Z,13.23
2022-10-18T23:46:09.967Z,13.27
2022-10-18T23:49:12.549Z,15.15
2022-10-18T23:52:14.877Z,13.73
2022-10-18T23:55:17.422Z,13.60
2022-10-18T23:58:20.001Z,13.73
